sensor_id;sensor_type;location;lat;lon;timestamp;pressure;altitude;pressure_sealevel;temperature;humidity
47809;BME280;33573;38.790;-77.084;2024-01-06T00:01:00;102197.68;;;16.97;24.81
47809;BME280;33573;38.790;-77.084;2024-01-06T00:03:21;102191.63;;;17.05;24.98
47809;BME280;33573;38.790;-77.084;2024-01-06T00:05:47;102186.97;;;17.16;24.67
47809;BME280;33573;38.790;-77.084;2024-01-06T00:08:16;102191.02;;;17.26;24.75
47809;BME280;33573;38.790;-77.084;2024-01-06T00:10:37;102195.73;;;16.96;24.65
47809;BME280;33573;38.790;-77.084;2024-01-06T00:13:03;102203.93;;;17.10;24.76
47809;BME280;33573;38.790;-77.084;2024-01-06T00:15:33;102205.22;;;17.06;24.76
47809;BME280;33573;38.790;-77.084;2024-01-06T00:17:54;102213.47;;;16.97;24.80
47809;BME280;33573;38.790;-77.084;2024-01-06T00:20:19;102222.00;;;16.97;24.80
47809;BME280;33573;38.790;-77.084;2024-01-06T00:22:49;102226.41;;;17.20;24.65
47809;BME280;33573;38.790;-77.084;2024-01-06T00:25:10;102233.23;;;17.18;24.76
47809;BME280;33573;38.790;-77.084;2024-01-06T00:27:36;102245.45;;;17.28;24.70
47809;BME280;33573;38.790;-77.084;2024-01-06T00:30:11;102252.35;;;16.88;24.80
47809;BME280;33573;38.790;-77.084;2024-01-06T00:32:21;102253.15;;;17.01;24.93
47809;BME280;33573;38.790;-77.084;2024-01-06T00:34:52;102261.12;;;16.90;24.93
47809;BME280;33573;38.790;-77.084;2024-01-06T00:37:12;102267.09;;;16.88;24.89
47809;BME280;33573;38.790;-77.084;2024-01-06T00:39:43;102272.46;;;16.84;24.91
47809;BME280;33573;38.790;-77.084;2024-01-06T00:42:08;102273.36;;;17.16;24.94
47809;BME280;33573;38.790;-77.084;2024-01-06T00:44:35;102276.50;;;17.45;24.74
47809;BME280;33573;38.790;-77.084;2024-01-06T00:46:59;102275.05;;;17.14;24.84
47809;BME280;33573;38.790;-77.084;2024-01-06T00:49:25;102275.47;;;17.06;24.86
47809;BME280;33573;38.790;-77.084;2024-01-06T00:51:45;102267.82;;;16.84;25.02
47809;BME280;33573;38.790;-77.084;2024-01-06T00:54:15;102265.94;;;16.83;25.02
47809;BME280;33573;38.790;-77.084;2024-01-06T00:56:41;102264.75;;;16.76;25.03
47809;BME280;33573;38.790;-77.084;2024-01-06T00:59:01;102264.07;;;17.03;24.94
47809;BME280;33573;38.790;-77.084;2024-01-06T01:01:32;102264.57;;;17.17;24.84
47809;BME280;33573;38.790;-77.084;2024-01-06T01:03:57;102260.10;;;17.10;24.88
47809;BME280;33573;38.790;-77.084;2024-01-06T01:06:27;102253.26;;;17.10;24.88
47809;BME280;33573;38.790;-77.084;2024-01-06T01:08:48;102250.70;;;17.01;24.97
47809;BME280;33573;38.790;-77.084;2024-01-06T01:11:14;102243.87;;;16.81;25.04
47809;BME280;33573;38.790;-77.084;2024-01-06T01:13:43;102241.58;;;16.62;25.14
47809;BME280;33573;38.790;-77.084;2024-01-06T01:16:05;102240.86;;;16.96;24.96
47809;BME280;33573;38.790;-77.084;2024-01-06T01:18:30;102238.16;;;17.06;24.90
47809;BME280;33573;38.790;-77.084;2024-01-06T01:20:59;102236.09;;;17.00;24.86
47809;BME280;33573;38.790;-77.084;2024-01-06T01:23:21;102228.17;;;16.82;24.97
47809;BME280;33573;38.790;-77.084;2024-01-06T01:25:46;102221.19;;;16.70;25.03
47809;BME280;33573;38.790;-77.084;2024-01-06T01:28:16;102221.76;;;16.65;25.02
47809;BME280;33573;38.790;-77.084;2024-01-06T01:30:37;102219.30;;;16.60;25.01
47809;BME280;33573;38.790;-77.084;2024-01-06T01:33:03;102214.83;;;16.33;25.08
47809;BME280;33573;38.790;-77.084;2024-01-06T01:35:23;102207.15;;;16.78;24.97
47809;BME280;33573;38.790;-77.084;2024-01-06T01:37:53;102197.72;;;16.96;25.04
47809;BME280;33573;38.790;-77.084;2024-01-06T01:40:19;102190.16;;;16.89;24.91
47809;BME280;33573;38.790;-77.084;2024-01-06T01:42:48;102180.05;;;16.85;24.93
47809;BME280;33573;38.790;-77.084;2024-01-06T01:45:10;102178.18;;;16.65;25.08
47809;BME280;33573;38.790;-77.084;2024-01-06T01:47:36;102174.58;;;16.61;25.09
47809;BME280;33573;38.790;-77.084;2024-01-06T01:50:05;102168.56;;;16.64;25.06
47809;BME280;33573;38.790;-77.084;2024-01-06T01:52:27;102155.36;;;16.77;25.35
47809;BME280;33573;38.790;-77.084;2024-01-06T01:54:52;102140.66;;;16.89;25.10
47809;BME280;33573;38.790;-77.084;2024-01-06T01:57:22;102135.00;;;17.05;25.04
47809;BME280;33573;38.790;-77.084;2024-01-06T01:59:37;102129.80;;;16.78;25.11
47809;BME280;33573;38.790;-77.084;2024-01-06T02:02:08;102130.85;;;16.67;25.17
47809;BME280;33573;38.790;-77.084;2024-01-06T02:04:37;102127.13;;;16.56;25.21
47809;BME280;33573;38.790;-77.084;2024-01-06T02:06:59;102117.29;;;16.54;25.21
47809;BME280;33573;38.790;-77.084;2024-01-06T02:09:24;102124.64;;;16.46;25.21
47809;BME280;33573;38.790;-77.084;2024-01-06T02:11:50;102123.52;;;16.53;25.22
47809;BME280;33573;38.790;-77.084;2024-01-06T02:14:20;102109.55;;;16.73;25.22
47809;BME280;33573;38.790;-77.084;2024-01-06T02:16:40;102106.34;;;16.90;25.17
47809;BME280;33573;38.790;-77.084;2024-01-06T02:19:08;102106.74;;;16.68;25.20
47809;BME280;33573;38.790;-77.084;2024-01-06T02:21:35;102097.78;;;16.58;25.27
47809;BME280;33573;38.790;-77.084;2024-01-06T02:23:57;102088.24;;;16.60;25.24
47809;BME280;33573;38.790;-77.084;2024-01-06T02:26:22;102088.48;;;16.50;25.28
47809;BME280;33573;38.790;-77.084;2024-01-06T02:28:43;102093.00;;;16.39;25.33
47809;BME280;33573;38.790;-77.084;2024-01-06T02:31:08;102096.45;;;16.67;25.35
47809;BME280;33573;38.790;-77.084;2024-01-06T02:33:38;102094.44;;;16.75;25.30
47809;BME280;33573;38.790;-77.084;2024-01-06T02:35:59;102088.42;;;16.91;25.17
47809;BME280;33573;38.790;-77.084;2024-01-06T02:38:29;102081.60;;;16.60;25.31
47809;BME280;33573;38.790;-77.084;2024-01-06T02:40:55;102080.55;;;16.60;25.30
47809;BME280;33573;38.790;-77.084;2024-01-06T02:43:25;102086.29;;;16.49;25.36
47809;BME280;33573;38.790;-77.084;2024-01-06T02:45:46;102083.32;;;16.43;25.37
47809;BME280;33573;38.790;-77.084;2024-01-06T02:48:11;102076.00;;;16.45;25.34
47809;BME280;33573;38.790;-77.084;2024-01-06T02:50:36;102078.05;;;16.71;25.46
47809;BME280;33573;38.790;-77.084;2024-01-06T02:53:02;102080.90;;;16.72;25.30
47809;BME280;33573;38.790;-77.084;2024-01-06T02:55:28;102080.93;;;16.92;25.50
47809;BME280;33573;38.790;-77.084;2024-01-06T02:57:57;102075.33;;;16.61;25.40
47809;BME280;33573;38.790;-77.084;2024-01-06T03:00:19;102072.08;;;16.56;25.42
47809;BME280;33573;38.790;-77.084;2024-01-06T03:02:44;102073.09;;;16.49;25.45
47809;BME280;33573;38.790;-77.084;2024-01-06T03:05:13;102071.50;;;16.41;25.50
47809;BME280;33573;38.790;-77.084;2024-01-06T03:07:35;102068.16;;;16.36;25.50
47809;BME280;33573;38.790;-77.084;2024-01-06T03:10:00;102061.37;;;16.34;25.51
47809;BME280;33573;38.790;-77.084;2024-01-06T03:12:35;102067.18;;;16.26;25.56
47809;BME280;33573;38.790;-77.084;2024-01-06T03:14:51;102065.07;;;16.26;25.53
47809;BME280;33573;38.790;-77.084;2024-01-06T03:17:11;102063.18;;;16.45;25.56
47809;BME280;33573;38.790;-77.084;2024-01-06T03:19:38;102070.96;;;16.13;25.62
47809;BME280;33573;38.790;-77.084;2024-01-06T03:22:03;102076.90;;;16.15;25.58
47809;BME280;33573;38.790;-77.084;2024-01-06T03:24:33;102074.88;;;16.06;25.63
47809;BME280;33573;38.790;-77.084;2024-01-06T03:26:53;102072.51;;;16.03;25.66
47809;BME280;33573;38.790;-77.084;2024-01-06T03:29:24;102072.27;;;16.06;25.62
47809;BME280;33573;38.790;-77.084;2024-01-06T03:31:49;102071.22;;;16.14;25.71
47809;BME280;33573;38.790;-77.084;2024-01-06T03:34:19;102070.52;;;15.94;25.65
47809;BME280;33573;38.790;-77.084;2024-01-06T03:36:40;102067.12;;;16.12;25.69
47809;BME280;33573;38.790;-77.084;2024-01-06T03:39:06;102063.18;;;16.08;25.72
47809;BME280;33573;38.790;-77.084;2024-01-06T03:41:35;102059.85;;;16.11;25.63
47809;BME280;33573;38.790;-77.084;2024-01-06T03:43:57;102061.61;;;16.26;25.72
47809;BME280;33573;38.790;-77.084;2024-01-06T03:46:23;102070.31;;;16.04;25.68
47809;BME280;33573;38.790;-77.084;2024-01-06T03:48:57;102069.86;;;16.04;25.70
47809;BME280;33573;38.790;-77.084;2024-01-06T03:53:33;102064.24;;;15.77;25.75
47809;BME280;33573;38.790;-77.084;2024-01-06T03:55:59;102061.30;;;15.79;25.74
47809;BME280;33573;38.790;-77.084;2024-01-06T03:58:29;102057.16;;;16.35;25.65
47809;BME280;33573;38.790;-77.084;2024-01-06T04:00:55;102050.57;;;16.02;25.80
47809;BME280;33573;38.790;-77.084;2024-01-06T04:03:24;102047.21;;;15.79;25.82
47809;BME280;33573;38.790;-77.084;2024-01-06T04:05:46;102040.27;;;15.81;25.89
47809;BME280;33573;38.790;-77.084;2024-01-06T04:08:11;102032.82;;;15.98;25.86
47809;BME280;33573;38.790;-77.084;2024-01-06T04:10:40;102031.83;;;15.90;25.89
47809;BME280;33573;38.790;-77.084;2024-01-06T04:13:02;102035.40;;;15.65;25.83
47809;BME280;33573;38.790;-77.084;2024-01-06T04:15:27;102042.95;;;16.08;25.85
47809;BME280;33573;38.790;-77.084;2024-01-06T04:18:01;102052.21;;;16.10;25.93
47809;BME280;33573;38.790;-77.084;2024-01-06T04:20:18;102061.07;;;15.76;25.92
47809;BME280;33573;38.790;-77.084;2024-01-06T04:22:44;102058.68;;;15.52;25.92
47809;BME280;33573;38.790;-77.084;2024-01-06T04:25:13;102058.99;;;15.74;25.93
47809;BME280;33573;38.790;-77.084;2024-01-06T04:27:34;102060.73;;;15.43;25.93
47809;BME280;33573;38.790;-77.084;2024-01-06T04:30:00;102054.66;;;15.90;25.93
47809;BME280;33573;38.790;-77.084;2024-01-06T04:32:29;102054.97;;;15.89;25.93
47809;BME280;33573;38.790;-77.084;2024-01-06T04:34:51;102051.39;;;15.67;25.94
47809;BME280;33573;38.790;-77.084;2024-01-06T04:37:17;102051.09;;;15.76;26.10
47809;BME280;33573;38.790;-77.084;2024-01-06T04:39:37;102050.36;;;15.53;26.00
47809;BME280;33573;38.790;-77.084;2024-01-06T04:42:07;102050.53;;;15.67;26.02
47809;BME280;33573;38.790;-77.084;2024-01-06T04:44:33;102055.75;;;15.70;25.96
47809;BME280;33573;38.790;-77.084;2024-01-06T04:47:03;102050.01;;;15.71;25.97
47809;BME280;33573;38.790;-77.084;2024-01-06T04:49:24;102043.46;;;15.69;25.99
47809;BME280;33573;38.790;-77.084;2024-01-06T04:51:49;102043.80;;;15.70;25.93
47809;BME280;33573;38.790;-77.084;2024-01-06T04:54:10;102033.62;;;15.48;25.86
47809;BME280;33573;38.790;-77.084;2024-01-06T04:56:40;102023.68;;;15.57;25.95
47809;BME280;33573;38.790;-77.084;2024-01-06T04:59:06;102026.99;;;15.44;26.08
47809;BME280;33573;38.790;-77.084;2024-01-06T05:01:31;102032.93;;;15.48;26.09
47809;BME280;33573;38.790;-77.084;2024-01-06T05:03:52;102036.57;;;15.55;25.93
47809;BME280;33573;38.790;-77.084;2024-01-06T05:06:23;102031.09;;;15.30;26.11
47809;BME280;33573;38.790;-77.084;2024-01-06T05:08:52;102035.82;;;15.31;26.12
47809;BME280;33573;38.790;-77.084;2024-01-06T05:11:13;102035.90;;;15.24;26.15
47809;BME280;33573;38.790;-77.084;2024-01-06T05:13:38;102040.22;;;15.34;26.02
47809;BME280;33573;38.790;-77.084;2024-01-06T05:15:58;102036.78;;;15.33;26.04
47809;BME280;33573;38.790;-77.084;2024-01-06T05:18:29;102036.39;;;15.33;26.01
47809;BME280;33573;38.790;-77.084;2024-01-06T05:20:56;102033.19;;;15.23;26.12
47809;BME280;33573;38.790;-77.084;2024-01-06T05:23:29;102030.02;;;15.09;26.28
47809;BME280;33573;38.790;-77.084;2024-01-06T05:25:40;102030.59;;;15.08;26.22
47809;BME280;33573;38.790;-77.084;2024-01-06T05:28:11;102031.50;;;15.41;26.10
47809;BME280;33573;38.790;-77.084;2024-01-06T05:30:31;102033.42;;;15.25;26.28
47809;BME280;33573;38.790;-77.084;2024-01-06T05:33:08;102035.33;;;15.03;26.21
47809;BME280;33573;38.790;-77.084;2024-01-06T05:35:27;102033.43;;;15.22;26.18
47809;BME280;33573;38.790;-77.084;2024-01-06T05:37:53;102031.62;;;15.24;26.19
47809;BME280;33573;38.790;-77.084;2024-01-06T05:40:18;102026.04;;;14.89;26.23
47809;BME280;33573;38.790;-77.084;2024-01-06T05:42:39;102022.50;;;14.75;26.14
47809;BME280;33573;38.790;-77.084;2024-01-06T05:45:11;102013.03;;;15.27;26.14
47809;BME280;33573;38.790;-77.084;2024-01-06T05:47:39;102004.69;;;15.15;26.18
47809;BME280;33573;38.790;-77.084;2024-01-06T05:49:55;102001.10;;;15.15;26.19
47809;BME280;33573;38.790;-77.084;2024-01-06T05:52:25;102003.09;;;14.95;26.13
47809;BME280;33573;38.790;-77.084;2024-01-06T05:54:55;102003.18;;;15.03;26.27
47809;BME280;33573;38.790;-77.084;2024-01-06T05:57:18;102003.65;;;14.77;26.28
47809;BME280;33573;38.790;-77.084;2024-01-06T05:59:42;101997.56;;;14.81;26.18
47809;BME280;33573;38.790;-77.084;2024-01-06T06:02:02;101995.44;;;15.03;26.21
47809;BME280;33573;38.790;-77.084;2024-01-06T06:04:28;101993.17;;;15.05;26.15
47809;BME280;33573;38.790;-77.084;2024-01-06T06:06:58;101999.49;;;14.98;26.23
47809;BME280;33573;38.790;-77.084;2024-01-06T06:09:24;101999.16;;;14.91;26.24
47809;BME280;33573;38.790;-77.084;2024-01-06T06:11:44;101996.52;;;14.99;26.15
47809;BME280;33573;38.790;-77.084;2024-01-06T06:14:15;101989.77;;;14.62;26.26
47809;BME280;33573;38.790;-77.084;2024-01-06T06:16:44;101990.45;;;14.90;26.25
47809;BME280;33573;38.790;-77.084;2024-01-06T06:19:01;101984.88;;;14.91;26.19
47809;BME280;33573;38.790;-77.084;2024-01-06T06:21:31;101978.66;;;14.98;26.13
47809;BME280;33573;38.790;-77.084;2024-01-06T06:24:01;101981.85;;;14.81;26.23
47809;BME280;33573;38.790;-77.084;2024-01-06T06:26:22;101979.68;;;14.95;26.16
47809;BME280;33573;38.790;-77.084;2024-01-06T06:28:42;101974.17;;;14.63;26.14
47809;BME280;33573;38.790;-77.084;2024-01-06T06:31:17;101958.97;;;15.05;26.21
47809;BME280;33573;38.790;-77.084;2024-01-06T06:33:38;101953.24;;;14.97;26.30
47809;BME280;33573;38.790;-77.084;2024-01-06T06:35:59;101954.25;;;14.82;26.18
47809;BME280;33573;38.790;-77.084;2024-01-06T06:38:34;101955.38;;;14.80;26.19
47809;BME280;33573;38.790;-77.084;2024-01-06T06:40:55;101959.44;;;14.70;26.18
47809;BME280;33573;38.790;-77.084;2024-01-06T06:43:20;101961.63;;;15.00;26.18
47809;BME280;33573;38.790;-77.084;2024-01-06T06:45:50;101954.88;;;14.91;26.22
47809;BME280;33573;38.790;-77.084;2024-01-06T06:48:11;101946.92;;;14.63;26.26
47809;BME280;33573;38.790;-77.084;2024-01-06T06:50:37;101952.68;;;14.63;26.25
47809;BME280;33573;38.790;-77.084;2024-01-06T06:53:06;101957.08;;;14.64;26.22
47809;BME280;33573;38.790;-77.084;2024-01-06T06:55:28;101950.59;;;14.82;26.23
47809;BME280;33573;38.790;-77.084;2024-01-06T06:57:53;101947.90;;;14.85;26.16
47809;BME280;33573;38.790;-77.084;2024-01-06T07:00:23;101947.79;;;14.55;26.22
47809;BME280;33573;38.790;-77.084;2024-01-06T07:02:44;101955.24;;;14.65;26.09
47809;BME280;33573;38.790;-77.084;2024-01-06T07:05:10;101957.50;;;14.60;26.21
47809;BME280;33573;38.790;-77.084;2024-01-06T07:07:39;101958.88;;;14.52;26.27
47809;BME280;33573;38.790;-77.084;2024-01-06T07:10:01;101964.32;;;14.52;26.21
47809;BME280;33573;38.790;-77.084;2024-01-06T07:12:26;101966.25;;;14.48;26.25
47809;BME280;33573;38.790;-77.084;2024-01-06T07:15:01;101969.98;;;14.60;26.11
47809;BME280;33573;38.790;-77.084;2024-01-06T07:17:17;101970.26;;;14.75;26.16
47809;BME280;33573;38.790;-77.084;2024-01-06T07:19:42;101959.38;;;14.78;26.11
47809;BME280;33573;38.790;-77.084;2024-01-06T07:22:12;101959.77;;;14.47;26.20
47809;BME280;33573;38.790;-77.084;2024-01-06T07:24:33;101959.56;;;14.69;26.20
47809;BME280;33573;38.790;-77.084;2024-01-06T07:26:59;101947.87;;;14.71;26.15
47809;BME280;33573;38.790;-77.084;2024-01-06T07:29:19;101939.47;;;14.48;26.15
47809;BME280;33573;38.790;-77.084;2024-01-06T07:31:50;101939.77;;;14.46;26.15
47809;BME280;33573;38.790;-77.084;2024-01-06T07:34:15;101939.63;;;14.48;26.15
47809;BME280;33573;38.790;-77.084;2024-01-06T07:36:45;101938.07;;;14.64;26.20
47809;BME280;33573;38.790;-77.084;2024-01-06T07:39:06;101940.90;;;14.38;26.12
47809;BME280;33573;38.790;-77.084;2024-01-06T07:41:32;101940.72;;;14.63;26.14
47809;BME280;33573;38.790;-77.084;2024-01-06T07:44:01;101938.29;;;14.53;26.19
47809;BME280;33573;38.790;-77.084;2024-01-06T07:46:23;101937.36;;;14.55;26.22
47809;BME280;33573;38.790;-77.084;2024-01-06T07:48:48;101940.75;;;14.61;26.15
47809;BME280;33573;38.790;-77.084;2024-01-06T07:51:18;101947.55;;;14.49;26.19
47809;BME280;33573;38.790;-77.084;2024-01-06T07:53:39;101948.67;;;14.58;26.07
47809;BME280;33573;38.790;-77.084;2024-01-06T07:56:05;101955.16;;;14.62;26.12
47809;BME280;33573;38.790;-77.084;2024-01-06T07:58:25;101959.56;;;14.54;26.08
47809;BME280;33573;38.790;-77.084;2024-01-06T08:01:00;101954.66;;;14.48;26.22
47809;BME280;33573;38.790;-77.084;2024-01-06T08:03:21;101942.62;;;14.41;26.18
47809;BME280;33573;38.790;-77.084;2024-01-06T08:05:46;101944.09;;;14.44;26.17
47809;BME280;33573;38.790;-77.084;2024-01-06T08:10:37;101943.80;;;14.44;26.17
47809;BME280;33573;38.790;-77.084;2024-01-06T08:13:03;101942.56;;;14.52;26.14
47809;BME280;33573;38.790;-77.084;2024-01-06T08:15:32;101939.30;;;14.51;26.06
47809;BME280;33573;38.790;-77.084;2024-01-06T08:17:54;101935.74;;;14.42;26.20
47809;BME280;33573;38.790;-77.084;2024-01-06T08:20:19;101933.02;;;14.15;26.15
47809;BME280;33573;38.790;-77.084;2024-01-06T08:22:49;101928.27;;;14.41;26.15
47809;BME280;33573;38.790;-77.084;2024-01-06T08:25:10;101916.20;;;14.46;26.10
47809;BME280;33573;38.790;-77.084;2024-01-06T08:27:35;101910.54;;;14.09;26.23
47809;BME280;33573;38.790;-77.084;2024-01-06T08:30:06;101914.51;;;14.36;26.18
47809;BME280;33573;38.790;-77.084;2024-01-06T08:32:26;101917.32;;;14.39;26.16
47809;BME280;33573;38.790;-77.084;2024-01-06T08:34:52;101913.56;;;14.35;26.13
47809;BME280;33573;38.790;-77.084;2024-01-06T08:37:21;101912.94;;;14.33;26.12
47809;BME280;33573;38.790;-77.084;2024-01-06T08:39:43;101904.05;;;14.37;26.10
47809;BME280;33573;38.790;-77.084;2024-01-06T08:42:08;101889.10;;;14.39;26.06
47809;BME280;33573;38.790;-77.084;2024-01-06T08:44:38;101878.60;;;14.30;26.10
47809;BME280;33573;38.790;-77.084;2024-01-06T08:46:59;101866.12;;;14.31;26.17
47809;BME280;33573;38.790;-77.084;2024-01-06T08:49:24;101857.06;;;14.33;26.17
47809;BME280;33573;38.790;-77.084;2024-01-06T08:51:54;101848.98;;;14.27;26.16
47809;BME280;33573;38.790;-77.084;2024-01-06T08:54:15;101834.74;;;14.39;26.04
47809;BME280;33573;38.790;-77.084;2024-01-06T08:56:41;101809.66;;;14.43;25.99
47809;BME280;33573;38.790;-77.084;2024-01-06T08:59:10;101791.93;;;14.12;26.03
47809;BME280;33573;38.790;-77.084;2024-01-06T09:01:32;101781.99;;;14.40;26.01
47809;BME280;33573;38.790;-77.084;2024-01-06T09:03:57;101757.09;;;14.39;26.00
47809;BME280;33573;38.790;-77.084;2024-01-06T09:06:18;101730.37;;;14.16;25.98
47809;BME280;33573;38.790;-77.084;2024-01-06T09:08:48;101712.87;;;14.35;25.99
47809;BME280;33573;38.790;-77.084;2024-01-06T09:11:14;101702.45;;;14.29;26.05
47809;BME280;33573;38.790;-77.084;2024-01-06T09:13:43;101710.61;;;14.27;26.09
47809;BME280;33573;38.790;-77.084;2024-01-06T09:16:00;101680.23;;;14.27;26.09
47809;BME280;33573;38.790;-77.084;2024-01-06T09:18:30;101670.13;;;14.28;26.07
47809;BME280;33573;38.790;-77.084;2024-01-06T09:21:00;101675.26;;;14.17;26.07
47809;BME280;33573;38.790;-77.084;2024-01-06T09:23:16;101683.17;;;14.21;26.04
47809;BME280;33573;38.790;-77.084;2024-01-06T09:25:47;101697.79;;;14.15;26.08
47809;BME280;33573;38.790;-77.084;2024-01-06T09:28:16;101718.17;;;13.92;26.06
47809;BME280;33573;38.790;-77.084;2024-01-06T09:30:37;101735.99;;;14.45;25.97
47809;BME280;33573;38.790;-77.084;2024-01-06T09:32:58;101735.63;;;14.19;26.05
47809;BME280;33573;38.790;-77.084;2024-01-06T09:35:23;101742.90;;;14.10;26.06
47809;BME280;33573;38.790;-77.084;2024-01-06T09:37:54;101751.65;;;14.08;26.14
47809;BME280;33573;38.790;-77.084;2024-01-06T09:40:19;101758.27;;;14.14;26.02
47809;BME280;33573;38.790;-77.084;2024-01-06T09:42:40;101755.95;;;14.23;25.99
47809;BME280;33573;38.790;-77.084;2024-01-06T09:45:06;101743.02;;;14.49;25.93
47809;BME280;33573;38.790;-77.084;2024-01-06T09:47:33;101746.59;;;14.11;26.04
47809;BME280;33573;38.790;-77.084;2024-01-06T09:49:59;101742.82;;;13.94;25.98
47809;BME280;33573;38.790;-77.084;2024-01-06T09:52:22;101734.99;;;14.30;25.97
47809;BME280;33573;38.790;-77.084;2024-01-06T09:54:52;101731.40;;;14.38;25.93
47809;BME280;33573;38.790;-77.084;2024-01-06T09:57:12;101742.11;;;14.44;25.95
47809;BME280;33573;38.790;-77.084;2024-01-06T09:59:38;101749.37;;;14.38;25.92
47809;BME280;33573;38.790;-77.084;2024-01-06T10:02:04;101747.94;;;14.79;25.81
47809;BME280;33573;38.790;-77.084;2024-01-06T10:04:29;101746.54;;;14.63;25.76
47809;BME280;33573;38.790;-77.084;2024-01-06T10:06:54;101741.73;;;14.90;25.79
47809;BME280;33573;38.790;-77.084;2024-01-06T10:09:26;101745.50;;;14.77;25.76
47809;BME280;33573;38.790;-77.084;2024-01-06T10:11:45;101740.98;;;15.09;25.76
47809;BME280;33573;38.790;-77.084;2024-01-06T10:14:12;101737.95;;;15.08;25.83
47809;BME280;33573;38.790;-77.084;2024-01-06T10:16:36;101738.93;;;14.95;25.78
47809;BME280;33573;38.790;-77.084;2024-01-06T10:19:01;101756.84;;;15.02;25.79
47809;BME280;33573;38.790;-77.084;2024-01-06T10:21:27;101769.22;;;15.29;25.83
47809;BME280;33573;38.790;-77.084;2024-01-06T10:23:54;101781.15;;;15.07;25.91
47809;BME280;33573;38.790;-77.084;2024-01-06T10:26:18;101786.73;;;15.22;25.83
47809;BME280;33573;38.790;-77.084;2024-01-06T10:28:43;101780.79;;;15.07;25.84
47809;BME280;33573;38.790;-77.084;2024-01-06T10:31:09;101776.47;;;15.29;25.91
47809;BME280;33573;38.790;-77.084;2024-01-06T10:33:34;101778.23;;;15.29;25.97
47809;BME280;33573;38.790;-77.084;2024-01-06T10:36:00;101782.58;;;15.39;25.92
47809;BME280;33573;38.790;-77.084;2024-01-06T10:38:26;101774.44;;;15.41;25.98
47809;BME280;33573;38.790;-77.084;2024-01-06T10:40:57;101780.13;;;15.50;25.93
47809;BME280;33573;38.790;-77.084;2024-01-06T10:43:17;101778.93;;;15.27;26.04
47809;BME280;33573;38.790;-77.084;2024-01-06T10:45:42;101780.16;;;15.30;26.04
47809;BME280;33573;38.790;-77.084;2024-01-06T10:48:07;101766.13;;;15.23;26.08
47809;BME280;33573;38.790;-77.084;2024-01-06T10:50:32;101757.39;;;15.27;26.03
47809;BME280;33573;38.790;-77.084;2024-01-06T10:52:58;101742.39;;;15.34;26.01
47809;BME280;33573;38.790;-77.084;2024-01-06T10:55:23;101738.19;;;15.59;26.05
47809;BME280;33573;38.790;-77.084;2024-01-06T10:57:49;101737.74;;;15.21;26.09
47809;BME280;33573;38.790;-77.084;2024-01-06T11:00:15;101743.36;;;15.49;26.04
47809;BME280;33573;38.790;-77.084;2024-01-06T11:02:40;101751.00;;;15.57;26.09
47809;BME280;33573;38.790;-77.084;2024-01-06T11:05:05;101753.84;;;16.07;26.21
47809;BME280;33573;38.790;-77.084;2024-01-06T11:07:30;101754.11;;;15.61;26.15
47809;BME280;33573;38.790;-77.084;2024-01-06T11:10:00;101757.91;;;15.56;26.09
47809;BME280;33573;38.790;-77.084;2024-01-06T11:12:30;101748.08;;;15.34;26.15
47809;BME280;33573;38.790;-77.084;2024-01-06T11:14:47;101736.21;;;15.83;26.25
47809;BME280;33573;38.790;-77.084;2024-01-06T11:17:12;101739.39;;;15.66;26.25
47809;BME280;33573;38.790;-77.084;2024-01-06T11:19:44;101737.19;;;15.71;26.24
47809;BME280;33573;38.790;-77.084;2024-01-06T11:24:34;101743.71;;;15.81;26.21
47809;BME280;33573;38.790;-77.084;2024-01-06T11:26:57;101744.76;;;15.78;26.18
47809;BME280;33573;38.790;-77.084;2024-01-06T11:29:20;101732.81;;;15.72;26.20
47809;BME280;33573;38.790;-77.084;2024-01-06T11:34:15;101732.59;;;15.82;26.22
47809;BME280;33573;38.790;-77.084;2024-01-06T11:36:36;101727.80;;;15.83;26.25
47809;BME280;33573;38.790;-77.084;2024-01-06T11:39:01;101737.98;;;15.85;26.28
47809;BME280;33573;38.790;-77.084;2024-01-06T11:43:52;101744.57;;;15.41;26.35
47809;BME280;33573;38.790;-77.084;2024-01-06T11:46:17;101739.06;;;15.61;26.37
47809;BME280;33573;38.790;-77.084;2024-01-06T11:48:44;101717.85;;;15.86;26.25
47809;BME280;33573;38.790;-77.084;2024-01-06T11:51:08;101712.58;;;15.85;26.30
47809;BME280;33573;38.790;-77.084;2024-01-06T11:53:34;101713.98;;;15.51;26.34
47809;BME280;33573;38.790;-77.084;2024-01-06T11:56:00;101717.99;;;15.79;26.37
47809;BME280;33573;38.790;-77.084;2024-01-06T11:58:25;101712.42;;;15.84;26.37
47809;BME280;33573;38.790;-77.084;2024-01-06T12:00:55;101721.75;;;15.91;26.37
47809;BME280;33573;38.790;-77.084;2024-01-06T12:03:16;101723.12;;;15.92;26.45
47809;BME280;33573;38.790;-77.084;2024-01-06T12:05:41;101711.33;;;15.93;26.45
47809;BME280;33573;38.790;-77.084;2024-01-06T12:08:06;101710.05;;;15.88;26.46
47809;BME280;33573;38.790;-77.084;2024-01-06T12:10:32;101707.71;;;15.88;26.45
47809;BME280;33573;38.790;-77.084;2024-01-06T12:12:59;101711.73;;;15.95;26.34
47809;BME280;33573;38.790;-77.084;2024-01-06T12:15:22;101711.52;;;16.00;26.34
47809;BME280;33573;38.790;-77.084;2024-01-06T12:17:48;101694.88;;;16.09;26.27
47809;BME280;33573;38.790;-77.084;2024-01-06T12:20:14;101678.54;;;15.81;26.40
47809;BME280;33573;38.790;-77.084;2024-01-06T12:22:39;101663.96;;;15.85;26.45
47809;BME280;33573;38.790;-77.084;2024-01-06T12:25:05;101646.03;;;15.96;26.57
47809;BME280;33573;38.790;-77.084;2024-01-06T12:27:31;101627.91;;;16.00;26.44
47809;BME280;33573;38.790;-77.084;2024-01-06T12:29:55;101617.98;;;15.95;26.53
47809;BME280;33573;38.790;-77.084;2024-01-06T12:32:20;101615.81;;;16.09;26.60